Wetterdaten: Woche 21.01.08 - 27.01.08 (KW4)
Datum Zeit Temperatur Luftfeuchte Luftdruck Niederschlag Wind Richtung Sonnenschein Solar Taupunkt Windchill Windben
21.01.2008 00:00 2.5 C 93 % 1027.7 hPa 0.0 l/m 0.9 km/h (0 Bft) O-SO 0.00 h 0 W/m 1.6 C 2.4 C 1.7 km/h (1 Bft)
21.01.2008 01:00 2.4 C 95 % 1027.1 hPa 0.0 l/m 2.4 km/h (1 Bft) O-SO 0.00 h 0 W/m 1.6 C 2.3 C 3.7 km/h (1 Bft)
21.01.2008 02:00 2.0 C 95 % 1026.7 hPa 0.0 l/m 2.3 km/h (1 Bft) S-SO 0.00 h 0 W/m 1.3 C 2.0 C 3.8 km/h (1 Bft)
21.01.2008 03:00 1.6 C 96 % 1026.8 hPa 0.0 l/m 3.5 km/h (1 Bft) SO 0.00 h 0 W/m 1.1 C 1.3 C 5.2 km/h (1 Bft)
21.01.2008 04:00 2.0 C 96 % 1026.3 hPa 0.0 l/m 2.3 km/h (1 Bft) S 0.00 h 0 W/m 1.4 C 2.0 C 4.3 km/h (1 Bft)
21.01.2008 05:00 1.4 C 96 % 1026.4 hPa 0.0 l/m 2.4 km/h (1 Bft) S-SO 0.00 h 0 W/m 0.8 C 1.2 C 4.0 km/h (1 Bft)
21.01.2008 06:00 1.3 C 97 % 1026.6 hPa 0.0 l/m 4.4 km/h (1 Bft) O-SO 0.00 h 0 W/m 0.9 C 0.6 C 6.1 km/h (2 Bft)
21.01.2008 07:00 1.5 C 97 % 1026.5 hPa 0.0 l/m 3.7 km/h (1 Bft) SO 0.00 h 0 W/m 1.1 C 1.1 C 5.8 km/h (2 Bft)
21.01.2008 08:00 1.4 C 97 % 1026.3 hPa 0.0 l/m 3.0 km/h (1 Bft) SO 0.15 h 28 W/m 1.0 C 1.1 C 5.3 km/h (1 Bft)
21.01.2008 09:00 2.0 C 97 % 1026.4 hPa 0.0 l/m 1.8 km/h (1 Bft) S-SO 0.00 h 68 W/m 1.6 C 1.9 C 3.9 km/h (1 Bft)
21.01.2008 10:00 3.0 C 95 % 1026.3 hPa 0.0 l/m 1.2 km/h (1 Bft) S 0.00 h 112 W/m 2.2 C 3.0 C 3.2 km/h (1 Bft)
21.01.2008 11:00 4.5 C 89 % 1025.4 hPa 0.0 l/m 0.7 km/h (0 Bft) S 0.40 h 182 W/m 2.8 C 4.5 C 2.1 km/h (1 Bft)
21.01.2008 12:00 6.9 C 82 % 1024.2 hPa 0.0 l/m 1.5 km/h (1 Bft) S-SO 0.33 h 191 W/m 4.1 C 6.8 C 3.4 km/h (1 Bft)
21.01.2008 13:00 9.1 C 71 % 1023.0 hPa 0.0 l/m 8.4 km/h (2 Bft) W 0.68 h 227 W/m 4.2 C 8.0 C 13.1 km/h (3 Bft)
21.01.2008 14:00 9.9 C 67 % 1022.0 hPa 0.0 l/m 13.4 km/h (3 Bft) W 0.82 h 255 W/m 4.1 C 8.2 C 20.0 km/h (4 Bft)
21.01.2008 15:00 9.6 C 68 % 1021.2 hPa 0.0 l/m 12.8 km/h (3 Bft) W 0.63 h 130 W/m 4.0 C 7.8 C 19.2 km/h (3 Bft)
21.01.2008 16:00 9.2 C 71 % 1020.7 hPa 0.0 l/m 9.4 km/h (2 Bft) W 0.72 h 56 W/m 4.2 C 7.9 C 14.4 km/h (3 Bft)
21.01.2008 17:00 8.0 C 77 % 1020.2 hPa 0.0 l/m 4.3 km/h (1 Bft) W-SW 0.00 h 6 W/m 4.2 C 7.6 C 7.0 km/h (2 Bft)
21.01.2008 18:00 7.6 C 80 % 1020.1 hPa 0.0 l/m 7.1 km/h (2 Bft) W-SW 0.00 h 0 W/m 4.3 C 6.5 C 11.3 km/h (2 Bft)
21.01.2008 19:00 7.3 C 81 % 1019.9 hPa 0.0 l/m 10.3 km/h (2 Bft) W 0.00 h 0 W/m 4.3 C 5.5 C 16.1 km/h (3 Bft)
21.01.2008 20:00 7.5 C 80 % 1019.1 hPa 0.0 l/m 15.7 km/h (3 Bft) W 0.00 h 0 W/m 4.2 C 4.8 C 23.7 km/h (4 Bft)
21.01.2008 21:00 7.4 C 79 % 1018.0 hPa 0.0 l/m 11.6 km/h (2 Bft) W 0.00 h 0 W/m 4.0 C 5.3 C 18.3 km/h (3 Bft)
21.01.2008 22:00 8.6 C 73 % 1017.7 hPa 0.0 l/m 18.9 km/h (3 Bft) W 0.00 h 0 W/m 4.1 C 5.8 C 27.3 km/h (4 Bft)
21.01.2008 23:00 9.0 C 74 % 1017.2 hPa 0.0 l/m 17.1 km/h (3 Bft) W 0.00 h 0 W/m 4.5 C 6.5 C 25.2 km/h (4 Bft)
22.01.2008 00:00 10.1 C 69 % 1016.1 hPa 0.0 l/m 21.4 km/h (4 Bft) W 0.00 h 0 W/m 4.7 C 9.0 C 31.6 km/h (5 Bft)
22.01.2008 01:00 10.7 C 66 % 1015.0 hPa 0.0 l/m 14.5 km/h (3 Bft) W-SW 0.00 h 0 W/m 4.6 C 10.7 C 22.1 km/h (4 Bft)
22.01.2008 02:00 9.7 C 76 % 1014.1 hPa 0.0 l/m 12.9 km/h (3 Bft) SW 0.00 h 0 W/m 5.6 C 8.4 C 21.2 km/h (4 Bft)
22.01.2008 03:00 8.4 C 87 % 1013.5 hPa 1.2 l/m 10.1 km/h (2 Bft) SW 0.00 h 0 W/m 6.4 C 6.8 C 16.4 km/h (3 Bft)
22.01.2008 04:00 8.4 C 85 % 1013.4 hPa 0.4 l/m 18.1 km/h (3 Bft) W 0.00 h 0 W/m 5.9 C 5.6 C 28.1 km/h (4 Bft)
22.01.2008 05:00 7.5 C 88 % 1013.4 hPa 1.2 l/m 9.0 km/h (2 Bft) W-SW 0.00 h 0 W/m 5.5 C 5.9 C 14.5 km/h (3 Bft)
22.01.2008 06:00 6.8 C 93 % 1013.0 hPa 2.4 l/m 6.4 km/h (2 Bft) W-SW 0.00 h 0 W/m 5.8 C 5.8 C 10.6 km/h (2 Bft)
22.01.2008 07:00 7.0 C 94 % 1012.7 hPa 1.6 l/m 15.7 km/h (3 Bft) W 0.00 h 0 W/m 6.0 C 4.7 C 22.9 km/h (4 Bft)
22.01.2008 08:00 7.5 C 82 % 1013.7 hPa 0.0 l/m 25.6 km/h (4 Bft) W 0.00 h 15 W/m 4.7 C 3.8 C 37.2 km/h (5 Bft)
22.01.2008 09:00 7.5 C 78 % 1014.7 hPa 0.2 l/m 31.0 km/h (5 Bft) W 0.07 h 60 W/m 3.9 C 3.3 C 45.0 km/h (6 Bft)
22.01.2008 10:00 7.1 C 83 % 1016.2 hPa 0.0 l/m 25.5 km/h (4 Bft) W 0.00 h 70 W/m 4.3 C 3.2 C 36.8 km/h (5 Bft)
22.01.2008 11:00 7.1 C 83 % 1017.3 hPa 0.0 l/m 23.1 km/h (4 Bft) W 0.00 h 107 W/m 4.4 C 3.4 C 33.3 km/h (5 Bft)
22.01.2008 12:00 6.9 C 83 % 1018.4 hPa 0.0 l/m 21.7 km/h (4 Bft) W 0.13 h 148 W/m 4.3 C 3.4 C 32.0 km/h (5 Bft)
22.01.2008 13:00 6.8 C 83 % 1020.2 hPa 0.0 l/m 15.2 km/h (3 Bft) W 0.00 h 113 W/m 4.2 C 4.0 C 22.4 km/h (4 Bft)
22.01.2008 14:00 7.1 C 71 % 1021.7 hPa 0.0 l/m 8.7 km/h (2 Bft) N-NW 0.25 h 139 W/m 2.2 C 5.7 C 14.1 km/h (3 Bft)
22.01.2008 15:00 7.1 C 60 % 1023.7 hPa 0.0 l/m 9.2 km/h (2 Bft) N-NW 0.75 h 151 W/m -0.1 C 5.4 C 15.3 km/h (3 Bft)
22.01.2008 16:00 6.0 C 58 % 1025.5 hPa 0.0 l/m 6.4 km/h (2 Bft) N 0.58 h 50 W/m -1.7 C 4.8 C 10.8 km/h (2 Bft)
22.01.2008 17:00 4.4 C 63 % 1027.6 hPa 0.0 l/m 5.7 km/h (1 Bft) N 0.02 h 7 W/m -2.1 C 3.3 C 9.3 km/h (2 Bft)
22.01.2008 18:00 3.0 C 68 % 1029.3 hPa 0.0 l/m 2.1 km/h (1 Bft) N-NO 0.00 h 0 W/m -2.4 C 2.8 C 4.0 km/h (1 Bft)
22.01.2008 19:00 1.5 C 76 % 1030.6 hPa 0.0 l/m 3.1 km/h (1 Bft) O-SO 0.00 h 0 W/m -2.2 C 0.9 C 4.6 km/h (1 Bft)
22.01.2008 20:00 0.4 C 81 % 1031.8 hPa 0.0 l/m 3.7 km/h (1 Bft) SO 0.00 h 0 W/m -2.5 C -0.6 C 4.9 km/h (1 Bft)
22.01.2008 21:00 -0.2 C 84 % 1032.5 hPa 0.0 l/m 1.3 km/h (1 Bft) O-SO 0.00 h 0 W/m -2.6 C -0.4 C 2.0 km/h (1 Bft)
22.01.2008 22:00 -0.8 C 87 % 1033.1 hPa 0.0 l/m 2.6 km/h (1 Bft) O-SO 0.00 h 0 W/m -2.7 C -1.3 C 3.9 km/h (1 Bft)
22.01.2008 23:00 -1.1 C 88 % 1033.9 hPa 0.0 l/m 0.0 km/h (0 Bft) O-SO 0.00 h 0 W/m -2.8 C -1.1 C 0.2 km/h (0 Bft)
23.01.2008 00:00 -1.4 C 89 % 1034.1 hPa 0.0 l/m 0.4 km/h (0 Bft) O-SO 0.00 h 0 W/m -2.9 C -1.4 C 0.8 km/h (0 Bft)
23.01.2008 01:00 -1.8 C 91 % 1034.2 hPa 0.0 l/m 2.7 km/h (1 Bft) O-SO 0.00 h 0 W/m -3.1 C -2.4 C 3.4 km/h (1 Bft)
23.01.2008 02:00 -2.1 C 91 % 1034.5 hPa 0.0 l/m 0.3 km/h (0 Bft) O-SO 0.00 h 0 W/m -3.4 C -2.1 C 0.7 km/h (0 Bft)
23.01.2008 03:00 -2.5 C 92 % 1034.5 hPa 0.0 l/m 0.8 km/h (0 Bft) O-SO 0.00 h 0 W/m -3.6 C -2.5 C 1.4 km/h (1 Bft)
23.01.2008 04:00 -2.7 C 93 % 1034.2 hPa 0.0 l/m 0.6 km/h (0 Bft) O-SO 0.00 h 0 W/m -3.7 C -2.7 C 1.1 km/h (1 Bft)
23.01.2008 05:00 -3.2 C 94 % 1034.2 hPa 0.0 l/m 0.6 km/h (0 Bft) O-SO 0.00 h 0 W/m -4.0 C -3.3 C 1.0 km/h (0 Bft)
23.01.2008 06:00 -3.1 C 95 % 1034.6 hPa 0.0 l/m 0.0 km/h (0 Bft) N 0.00 h 0 W/m -3.8 C -3.1 C 0.4 km/h (0 Bft)
23.01.2008 07:00 -2.9 C 96 % 1035.1 hPa 0.0 l/m 0.0 km/h (0 Bft) O-SO 0.00 h 0 W/m -3.5 C -2.9 C 0.3 km/h (0 Bft)
23.01.2008 08:00 -3.3 C 96 % 1035.5 hPa 0.0 l/m 0.0 km/h (0 Bft) O-SO 0.02 h 22 W/m -3.8 C -3.3 C 0.5 km/h (0 Bft)
23.01.2008 09:00 -2.6 C 97 % 1035.7 hPa 0.0 l/m 0.2 km/h (0 Bft) O-SO 0.52 h 106 W/m -3.1 C -2.6 C 0.4 km/h (0 Bft)
23.01.2008 10:00 -1.1 C 95 % 1035.5 hPa 0.0 l/m 0.4 km/h (0 Bft) O-SO 0.38 h 117 W/m -1.8 C -1.1 C 1.1 km/h (0 Bft)
23.01.2008 11:00 1.0 C 89 % 1035.4 hPa 0.0 l/m 0.5 km/h (0 Bft) O-SO 0.80 h 286 W/m -0.7 C 1.0 C 1.7 km/h (1 Bft)
23.01.2008 12:00 3.5 C 75 % 1034.4 hPa 0.0 l/m 1.4 km/h (1 Bft) O-SO 0.85 h 328 W/m -0.5 C 3.5 C 3.2 km/h (1 Bft)
23.01.2008 13:00 4.7 C 67 % 1033.6 hPa 0.0 l/m 1.7 km/h (1 Bft) O 0.95 h 348 W/m -0.8 C 4.6 C 4.0 km/h (1 Bft)
23.01.2008 14:00 5.5 C 62 % 1033.1 hPa 0.0 l/m 1.3 km/h (1 Bft) O 0.90 h 262 W/m -1.2 C 5.4 C 3.4 km/h (1 Bft)
23.01.2008 15:00 5.8 C 58 % 1033.1 hPa 0.0 l/m 2.2 km/h (1 Bft) O 1.00 h 186 W/m -1.9 C 5.6 C 3.9 km/h (1 Bft)
23.01.2008 16:00 5.5 C 54 % 1033.1 hPa 0.0 l/m 1.3 km/h (1 Bft) O-SO 0.55 h 54 W/m -3.1 C 5.5 C 2.6 km/h (1 Bft)
23.01.2008 17:00 3.9 C 62 % 1033.7 hPa 0.0 l/m 0.7 km/h (0 Bft) O-SO 0.03 h 7 W/m -2.7 C 3.9 C 1.7 km/h (1 Bft)
23.01.2008 18:00 1.4 C 77 % 1034.1 hPa 0.0 l/m 1.5 km/h (1 Bft) O-SO 0.00 h 0 W/m -2.2 C 1.3 C 2.5 km/h (1 Bft)
23.01.2008 19:00 0.3 C 83 % 1034.5 hPa 0.0 l/m 1.8 km/h (1 Bft) O-SO 0.00 h 0 W/m -2.3 C 0.1 C 2.8 km/h (1 Bft)
23.01.2008 20:00 -0.3 C 86 % 1034.6 hPa 0.0 l/m 0.3 km/h (0 Bft) O-SO 0.00 h 0 W/m -2.3 C -0.3 C 0.7 km/h (0 Bft)
23.01.2008 21:00 -0.8 C 89 % 1034.5 hPa 0.0 l/m 1.8 km/h (1 Bft) O-SO 0.00 h 0 W/m -2.4 C -1.2 C 2.7 km/h (1 Bft)
23.01.2008 22:00 -1.2 C 90 % 1034.2 hPa 0.0 l/m 0.9 km/h (0 Bft) O-SO 0.00 h 0 W/m -2.6 C -1.2 C 1.8 km/h (1 Bft)
23.01.2008 23:00 -1.4 C 92 % 1033.9 hPa 0.0 l/m 0.4 km/h (0 Bft) O-SO 0.00 h 0 W/m -2.5 C -1.4 C 0.8 km/h (0 Bft)
24.01.2008 00:00 -1.7 C 93 % 1033.6 hPa 0.0 l/m 0.2 km/h (0 Bft) O-SO 0.00 h 0 W/m -2.6 C -1.7 C 0.5 km/h (0 Bft)
24.01.2008 01:00 -2.0 C 94 % 1033.1 hPa 0.0 l/m 1.0 km/h (0 Bft) O-SO 0.00 h 0 W/m -2.7 C -2.0 C 1.7 km/h (1 Bft)
24.01.2008 02:00 -2.2 C 94 % 1032.8 hPa 0.0 l/m 0.9 km/h (0 Bft) O-SO 0.00 h 0 W/m -2.9 C -2.2 C 1.5 km/h (1 Bft)
24.01.2008 03:00 -2.3 C 95 % 1032.6 hPa 0.0 l/m 1.1 km/h (0 Bft) O-SO 0.00 h 0 W/m -2.9 C -2.3 C 1.7 km/h (1 Bft)
24.01.2008 04:00 -2.4 C 96 % 1032.7 hPa 0.0 l/m 1.9 km/h (1 Bft) O-SO 0.00 h 0 W/m -3.0 C -2.7 C 2.5 km/h (1 Bft)
24.01.2008 05:00 -2.4 C 96 % 1032.6 hPa 0.0 l/m 1.3 km/h (1 Bft) O-SO 0.00 h 0 W/m -3.0 C -2.4 C 2.1 km/h (1 Bft)
24.01.2008 06:00 -2.4 C 95 % 1032.7 hPa 0.0 l/m 1.2 km/h (1 Bft) O-SO 0.00 h 0 W/m -3.1 C -2.4 C 2.2 km/h (1 Bft)
24.01.2008 07:00 -2.6 C 94 % 1032.7 hPa 0.0 l/m 0.6 km/h (0 Bft) O-SO 0.00 h 0 W/m -3.4 C -2.6 C 1.3 km/h (1 Bft)
24.01.2008 08:00 -2.6 C 95 % 1032.9 hPa 0.0 l/m 0.3 km/h (0 Bft) O-SO 0.03 h 17 W/m -3.3 C -2.6 C 0.7 km/h (0 Bft)
24.01.2008 09:00 -1.8 C 95 % 1032.8 hPa 0.0 l/m 0.3 km/h (0 Bft) O-SO 0.53 h 98 W/m -2.5 C -1.8 C 0.7 km/h (0 Bft)
24.01.2008 10:00 -0.1 C 90 % 1032.5 hPa 0.0 l/m 0.1 km/h (0 Bft) O-SO 0.40 h 121 W/m -1.6 C -0.1 C 0.9 km/h (0 Bft)
24.01.2008 11:00 1.9 C 82 % 1032.5 hPa 0.0 l/m 1.2 km/h (1 Bft) SO 0.87 h 280 W/m -0.9 C 1.9 C 3.0 km/h (1 Bft)
24.01.2008 12:00 4.1 C 74 % 1031.8 hPa 0.0 l/m 2.0 km/h (1 Bft) S-SO 1.00 h 304 W/m -0.2 C 4.0 C 4.3 km/h (1 Bft)
24.01.2008 13:00 5.4 C 68 % 1031.1 hPa 0.0 l/m 1.0 km/h (0 Bft) SW 1.00 h 283 W/m -0.0 C 5.4 C 2.6 km/h (1 Bft)
24.01.2008 14:00 6.5 C 65 % 1030.8 hPa 0.0 l/m 0.7 km/h (0 Bft) SW 1.00 h 243 W/m 0.4 C 6.5 C 2.1 km/h (1 Bft)
24.01.2008 15:00 7.0 C 64 % 1031.2 hPa 0.0 l/m 1.1 km/h (0 Bft) SW 1.00 h 154 W/m 0.7 C 7.0 C 2.3 km/h (1 Bft)
24.01.2008 16:00 6.2 C 68 % 1031.3 hPa 0.0 l/m 0.3 km/h (0 Bft) SW 0.40 h 50 W/m 0.8 C 6.2 C 1.1 km/h (0 Bft)
24.01.2008 17:00 4.6 C 75 % 1031.7 hPa 0.0 l/m 0.5 km/h (0 Bft) SW 0.03 h 7 W/m 0.7 C 4.6 C 1.1 km/h (0 Bft)
24.01.2008 18:00 3.5 C 78 % 1032.4 hPa 0.0 l/m 0.3 km/h (0 Bft) SW 0.00 h 0 W/m -0.0 C 3.5 C 0.9 km/h (0 Bft)
24.01.2008 19:00 2.5 C 82 % 1033.3 hPa 0.0 l/m 1.9 km/h (1 Bft) S-SW 0.00 h 0 W/m -0.3 C 2.3 C 2.9 km/h (1 Bft)
24.01.2008 20:00 3.0 C 80 % 1034.2 hPa 0.0 l/m 1.2 km/h (1 Bft) SO 0.00 h 0 W/m -0.2 C 2.9 C 2.2 km/h (1 Bft)
24.01.2008 21:00 2.8 C 83 % 1034.4 hPa 0.0 l/m 1.8 km/h (1 Bft) SO 0.00 h 0 W/m 0.2 C 2.6 C 3.1 km/h (1 Bft)
24.01.2008 22:00 4.1 C 76 % 1034.9 hPa 0.0 l/m 3.4 km/h (1 Bft) SO 0.00 h 0 W/m 0.3 C 3.7 C 4.9 km/h (1 Bft)
24.01.2008 23:00 4.8 C 72 % 1035.3 hPa 0.0 l/m 4.7 km/h (1 Bft) S-SO 0.00 h 0 W/m 0.1 C 4.0 C 7.1 km/h (2 Bft)
25.01.2008 00:00 4.9 C 72 % 1036.2 hPa 0.0 l/m 3.0 km/h (1 Bft) S-SO 0.00 h 0 W/m 0.2 C 4.4 C 5.3 km/h (1 Bft)
25.01.2008 01:00 5.0 C 71 % 1037.3 hPa 0.0 l/m 2.3 km/h (1 Bft) S-SO 0.00 h 0 W/m 0.2 C 4.8 C 4.8 km/h (1 Bft)
25.01.2008 02:00 4.7 C 74 % 1038.1 hPa 0.0 l/m 4.3 km/h (1 Bft) S-SO 0.00 h 0 W/m 0.5 C 4.2 C 7.0 km/h (2 Bft)
25.01.2008 03:00 3.7 C 83 % 1039.0 hPa 0.2 l/m 2.9 km/h (1 Bft) S-SO 0.00 h 0 W/m 1.1 C 3.6 C 4.7 km/h (1 Bft)
25.01.2008 04:00 3.1 C 89 % 1039.5 hPa 0.0 l/m 3.8 km/h (1 Bft) O-SO 0.00 h 0 W/m 1.4 C 2.7 C 5.3 km/h (1 Bft)
25.01.2008 05:00 3.1 C 90 % 1039.8 hPa 0.0 l/m 1.4 km/h (1 Bft) O-SO 0.00 h 0 W/m 1.6 C 3.1 C 2.3 km/h (1 Bft)
25.01.2008 06:00 2.9 C 91 % 1040.4 hPa 0.0 l/m 0.6 km/h (0 Bft) O-SO 0.00 h 0 W/m 1.6 C 2.9 C 1.4 km/h (1 Bft)
25.01.2008 07:00 2.7 C 91 % 1040.7 hPa 0.0 l/m 0.4 km/h (0 Bft) O-SO 0.00 h 0 W/m 1.4 C 2.7 C 1.5 km/h (1 Bft)
25.01.2008 08:00 1.7 C 92 % 1041.5 hPa 0.0 l/m 2.2 km/h (1 Bft) O-SO 0.00 h 18 W/m 0.6 C 1.6 C 3.4 km/h (1 Bft)
25.01.2008 09:00 1.8 C 95 % 1041.9 hPa 0.0 l/m 0.9 km/h (0 Bft) O-SO 0.00 h 64 W/m 1.0 C 1.8 C 2.0 km/h (1 Bft)
25.01.2008 10:00 2.7 C 93 % 1042.2 hPa 0.0 l/m 1.0 km/h (0 Bft) NW 0.00 h 100 W/m 1.6 C 2.7 C 2.5 km/h (1 Bft)
25.01.2008 11:00 3.4 C 91 % 1042.1 hPa 0.0 l/m 1.9 km/h (1 Bft) NW 0.05 h 145 W/m 2.0 C 3.2 C 4.0 km/h (1 Bft)
25.01.2008 12:00 4.2 C 88 % 1041.7 hPa 0.0 l/m 1.1 km/h (1 Bft) NW 0.08 h 170 W/m 2.4 C 4.2 C 2.3 km/h (1 Bft)
25.01.2008 13:00 6.0 C 80 % 1041.1 hPa 0.0 l/m 7.4 km/h (2 Bft) SO 1.00 h 340 W/m 2.7 C 4.5 C 12.0 km/h (2 Bft)
25.01.2008 14:00 5.4 C 79 % 1040.7 hPa 0.0 l/m 6.8 km/h (2 Bft) O-SO 0.57 h 188 W/m 2.0 C 4.1 C 10.0 km/h (2 Bft)
25.01.2008 15:00 5.2 C 80 % 1040.7 hPa 0.0 l/m 4.2 km/h (1 Bft) O-SO 0.25 h 104 W/m 2.0 C 4.6 C 6.2 km/h (2 Bft)
25.01.2008 16:00 4.9 C 79 % 1040.7 hPa 0.0 l/m 1.6 km/h (1 Bft) O-SO 0.00 h 26 W/m 1.7 C 4.8 C 3.2 km/h (1 Bft)
25.01.2008 17:00 4.3 C 81 % 1040.7 hPa 0.0 l/m 2.7 km/h (1 Bft) O-SO 0.00 h 5 W/m 1.4 C 4.0 C 4.4 km/h (1 Bft)
25.01.2008 18:00 4.0 C 83 % 1040.9 hPa 0.0 l/m 2.7 km/h (1 Bft) O-SO 0.00 h 0 W/m 1.4 C 3.7 C 4.9 km/h (1 Bft)
25.01.2008 19:00 3.7 C 84 % 1041.4 hPa 0.0 l/m 0.7 km/h (0 Bft) O-NO 0.00 h 0 W/m 1.2 C 3.7 C 2.4 km/h (1 Bft)
25.01.2008 20:00 3.4 C 84 % 1041.5 hPa 0.0 l/m 1.0 km/h (0 Bft) SO 0.00 h 0 W/m 1.0 C 3.3 C 2.2 km/h (1 Bft)
25.01.2008 21:00 3.2 C 86 % 1041.4 hPa 0.0 l/m 0.4 km/h (0 Bft) SO 0.00 h 0 W/m 1.1 C 3.2 C 1.4 km/h (1 Bft)
25.01.2008 22:00 2.8 C 87 % 1041.2 hPa 0.0 l/m 2.3 km/h (1 Bft) SO 0.00 h 0 W/m 0.9 C 2.5 C 4.2 km/h (1 Bft)
25.01.2008 23:00 2.7 C 88 % 1040.9 hPa 0.0 l/m 0.4 km/h (0 Bft) O-SO 0.00 h 0 W/m 0.9 C 2.7 C 1.3 km/h (1 Bft)
26.01.2008 00:00 2.8 C 88 % 1040.9 hPa 0.0 l/m 0.1 km/h (0 Bft) O 0.00 h 0 W/m 1.0 C 2.8 C 0.4 km/h (0 Bft)
26.01.2008 01:00 2.8 C 88 % 1040.7 hPa 0.0 l/m 0.3 km/h (0 Bft) O 0.00 h 0 W/m 1.1 C 2.8 C 0.8 km/h (0 Bft)
26.01.2008 02:00 2.7 C 90 % 1040.8 hPa 0.0 l/m 0.2 km/h (0 Bft) O 0.00 h 0 W/m 1.2 C 2.7 C 0.7 km/h (0 Bft)
26.01.2008 03:00 2.6 C 90 % 1040.6 hPa 0.0 l/m 1.6 km/h (1 Bft) S-SO 0.00 h 0 W/m 1.1 C 2.6 C 3.4 km/h (1 Bft)
26.01.2008 04:00 2.2 C 91 % 1040.5 hPa 0.0 l/m 1.9 km/h (1 Bft) SO 0.00 h 0 W/m 0.9 C 2.1 C 3.8 km/h (1 Bft)
26.01.2008 05:00 2.0 C 91 % 1040.8 hPa 0.0 l/m 2.3 km/h (1 Bft) S 0.00 h 0 W/m 0.6 C 1.8 C 4.8 km/h (1 Bft)
26.01.2008 06:00 1.5 C 92 % 1041.0 hPa 0.0 l/m 4.7 km/h (1 Bft) SO 0.00 h 0 W/m 0.4 C 0.6 C 7.3 km/h (2 Bft)
26.01.2008 07:00 1.3 C 93 % 1041.1 hPa 0.0 l/m 4.7 km/h (1 Bft) SO 0.00 h 0 W/m 0.3 C 0.3 C 7.4 km/h (2 Bft)
26.01.2008 08:00 1.2 C 92 % 1041.5 hPa 0.0 l/m 3.2 km/h (1 Bft) SO 0.00 h 9 W/m 0.1 C 0.7 C 5.7 km/h (1 Bft)
26.01.2008 09:00 1.3 C 90 % 1041.8 hPa 0.0 l/m 1.0 km/h (0 Bft) S-SO 0.00 h 29 W/m -0.1 C 1.3 C 2.7 km/h (1 Bft)
26.01.2008 10:00 1.6 C 88 % 1042.0 hPa 0.0 l/m 1.6 km/h (1 Bft) S-SO 0.00 h 70 W/m -0.1 C 1.5 C 3.7 km/h (1 Bft)
26.01.2008 11:00 2.2 C 86 % 1042.2 hPa 0.0 l/m 1.8 km/h (1 Bft) SW 0.00 h 122 W/m 0.1 C 2.0 C 3.7 km/h (1 Bft)
26.01.2008 12:00 2.8 C 84 % 1041.3 hPa 0.0 l/m 3.4 km/h (1 Bft) S 0.40 h 213 W/m 0.3 C 2.3 C 6.6 km/h (2 Bft)
26.01.2008 13:00 3.8 C 79 % 1040.7 hPa 0.0 l/m 2.7 km/h (1 Bft) SW 1.00 h 245 W/m 0.4 C 3.7 C 5.1 km/h (1 Bft)
26.01.2008 14:00 4.1 C 77 % 1039.8 hPa 0.0 l/m 3.1 km/h (1 Bft) S-SW 1.00 h 201 W/m 0.5 C 3.8 C 5.9 km/h (2 Bft)
26.01.2008 15:00 4.2 C 77 % 1039.5 hPa 0.0 l/m 1.6 km/h (1 Bft) S 0.88 h 142 W/m 0.4 C 4.1 C 3.2 km/h (1 Bft)
26.01.2008 16:00 3.9 C 77 % 1039.0 hPa 0.0 l/m 0.0 km/h (0 Bft) S-SO 0.48 h 64 W/m 0.2 C 3.9 C 0.9 km/h (0 Bft)
26.01.2008 17:00 2.2 C 84 % 1038.6 hPa 0.0 l/m 1.2 km/h (1 Bft) S-SO 0.10 h 10 W/m -0.3 C 2.2 C 2.4 km/h (1 Bft)
26.01.2008 18:00 0.9 C 88 % 1038.9 hPa 0.0 l/m 1.2 km/h (1 Bft) O-SO 0.00 h 0 W/m -0.9 C 0.8 C 2.0 km/h (1 Bft)
26.01.2008 19:00 -0.4 C 91 % 1039.6 hPa 0.0 l/m 2.1 km/h (1 Bft) SO 0.00 h 0 W/m -1.7 C -0.5 C 3.1 km/h (1 Bft)
26.01.2008 20:00 -0.9 C 92 % 1039.3 hPa 0.0 l/m 1.8 km/h (1 Bft) SO 0.00 h 0 W/m -2.0 C -1.0 C 2.8 km/h (1 Bft)
26.01.2008 21:00 -1.2 C 94 % 1039.3 hPa 0.0 l/m 0.3 km/h (0 Bft) O-SO 0.00 h 0 W/m -2.1 C -1.2 C 0.9 km/h (0 Bft)
26.01.2008 22:00 -1.7 C 95 % 1039.2 hPa 0.0 l/m 0.7 km/h (0 Bft) O-SO 0.00 h 0 W/m -2.3 C -1.7 C 1.3 km/h (1 Bft)
26.01.2008 23:00 -1.4 C 97 % 1038.7 hPa 0.0 l/m 2.9 km/h (1 Bft) S-SO 0.00 h 0 W/m -1.8 C -1.8 C 4.6 km/h (1 Bft)
27.01.2008 00:00 -1.4 C 97 % 1038.2 hPa 0.0 l/m 2.4 km/h (1 Bft) O-SO 0.00 h 0 W/m -1.9 C -1.6 C 3.6 km/h (1 Bft)
27.01.2008 01:00 -1.0 C 96 % 1038.1 hPa 0.0 l/m 4.4 km/h (1 Bft) O-SO 0.00 h 0 W/m -1.5 C -2.0 C 5.9 km/h (2 Bft)
27.01.2008 02:00 -0.7 C 96 % 1037.9 hPa 0.0 l/m 2.1 km/h (1 Bft) SO 0.00 h 0 W/m -1.3 C -0.8 C 3.7 km/h (1 Bft)
27.01.2008 03:00 -0.9 C 95 % 1037.7 hPa 0.0 l/m 0.4 km/h (0 Bft) SO 0.00 h 0 W/m -1.6 C -0.9 C 1.3 km/h (1 Bft)
27.01.2008 04:00 -0.7 C 95 % 1037.2 hPa 0.0 l/m 0.5 km/h (0 Bft) SO 0.00 h 0 W/m -1.4 C -0.7 C 1.8 km/h (1 Bft)
27.01.2008 05:00 -0.3 C 92 % 1037.2 hPa 0.0 l/m 1.1 km/h (1 Bft) S 0.00 h 0 W/m -1.4 C -0.3 C 2.7 km/h (1 Bft)
27.01.2008 06:00 -0.1 C 90 % 1037.7 hPa 0.0 l/m 0.2 km/h (0 Bft) O-SO 0.00 h 0 W/m -1.5 C -0.1 C 1.4 km/h (1 Bft)
27.01.2008 07:00 0.0 C 89 % 1038.0 hPa 0.0 l/m 1.5 km/h (1 Bft) SO 0.00 h 0 W/m -1.6 C -0.1 C 3.4 km/h (1 Bft)
27.01.2008 08:00 0.2 C 89 % 1038.3 hPa 0.0 l/m 0.8 km/h (0 Bft) S 0.00 h 13 W/m -1.5 C 0.2 C 2.5 km/h (1 Bft)
27.01.2008 09:00 0.6 C 87 % 1038.2 hPa 0.0 l/m 1.9 km/h (1 Bft) S 0.00 h 36 W/m -1.3 C 0.5 C 4.0 km/h (1 Bft)
27.01.2008 10:00 1.2 C 85 % 1038.2 hPa 0.0 l/m 2.7 km/h (1 Bft) S 0.00 h 60 W/m -1.0 C 0.9 C 6.0 km/h (2 Bft)
27.01.2008 11:00 1.6 C 85 % 1037.8 hPa 0.0 l/m 3.1 km/h (1 Bft) SW 0.00 h 76 W/m -0.7 C 1.3 C 6.7 km/h (2 Bft)
27.01.2008 12:00 2.1 C 83 % 1037.3 hPa 0.0 l/m 4.2 km/h (1 Bft) S 0.00 h 80 W/m -0.5 C 1.4 C 7.9 km/h (2 Bft)
27.01.2008 13:00 2.7 C 80 % 1036.8 hPa 0.0 l/m 5.7 km/h (1 Bft) S-SO 0.00 h 75 W/m -0.4 C 1.4 C 10.4 km/h (2 Bft)
27.01.2008 14:00 3.2 C 78 % 1036.4 hPa 0.0 l/m 4.7 km/h (1 Bft) S-SO 0.00 h 64 W/m -0.3 C 2.4 C 7.9 km/h (2 Bft)
27.01.2008 15:00 3.9 C 75 % 1036.0 hPa 0.0 l/m 4.0 km/h (1 Bft) S-SO 0.00 h 70 W/m -0.2 C 3.1 C 7.1 km/h (2 Bft)
27.01.2008 16:00 4.2 C 74 % 1036.0 hPa 0.0 l/m 2.5 km/h (1 Bft) SO 0.00 h 26 W/m -0.0 C 4.0 C 4.7 km/h (1 Bft)
27.01.2008 17:00 4.0 C 76 % 1036.2 hPa 0.0 l/m 4.4 km/h (1 Bft) S-SO 0.00 h 8 W/m 0.2 C 3.2 C 7.3 km/h (2 Bft)
27.01.2008 18:00 3.9 C 76 % 1036.3 hPa 0.0 l/m 3.4 km/h (1 Bft) S-SO 0.00 h 0 W/m 0.1 C 3.5 C 5.8 km/h (2 Bft)
27.01.2008 19:00 3.7 C 77 % 1036.6 hPa 0.0 l/m 4.1 km/h (1 Bft) SO 0.00 h 0 W/m -0.0 C 3.1 C 6.3 km/h (2 Bft)
27.01.2008 20:00 3.0 C 79 % 1036.7 hPa 0.0 l/m 4.9 km/h (1 Bft) SO 0.00 h 0 W/m -0.4 C 2.0 C 7.1 km/h (2 Bft)
27.01.2008 21:00 2.3 C 80 % 1036.8 hPa 0.0 l/m 4.5 km/h (1 Bft) O-SO 0.00 h 0 W/m -0.7 C 1.5 C 6.2 km/h (2 Bft)
27.01.2008 22:00 1.6 C 82 % 1036.9 hPa 0.0 l/m 2.4 km/h (1 Bft) O-SO 0.00 h 0 W/m -1.2 C 1.1 C 3.4 km/h (1 Bft)
27.01.2008 23:00 0.4 C 86 % 1036.9 hPa 0.0 l/m 1.3 km/h (1 Bft) O-SO 0.00 h 0 W/m -1.7 C 0.3 C 2.3 km/h (1 Bft)
Min-Datum _ 23.01.08 23.01.08 22.01.08 - 21.01.08 - - - 23.01.08 23.01.08 21.01.08
_ Min-Zeit 06:00 16:24 07:15 - 00:00 - - - 05:27 05:04 00:00
Minimum _ -3.4 C 50 % 1012.5 hPa - 0.0 km/h (0 Bft) - - - -4.1 C -5.1 C 0.0 km/h (0 Bft)
Max-Datum _ 22.01.08 21.01.08 25.01.08 22.01.08 22.01.08 - 21.01.08 21.01.08 22.01.08 22.01.08 22.01.08
_ Max-Zeit 01:31 09:00 10:30 06:05 09:18 - 08:18 13:33 04:03 01:31 09:18
Maximum _ 10.9 C 98 % 1042.5 hPa 2.4 l/m 42.9 km/h
W (6 Bft)
- 0.02 h 482 W/m 6.7 C 10.9 C 60.8 km/h
W (7 Bft)
Durchschnitt _ 2.8 C 84 % 1032.8 hPa #7.2 l/m 4.0 km/h (1 Bft) O-SO #23:37 h 117 W/m 0.2 C 2.2 C 6.5 km/h (2 Bft)
© Kaiko 2008